Time;durP1;ratioP1;P1;durP2;ratioP2;P2;SDS_P1;SDS_P2;PMS_P1;PMS_P2;Temp;Humidity;BMP_temperature;BMP_pressure;BME280_temperature;BME280_humidity;BME280_pressure;Samples;Min_cycle;Max_cycle;Signal;HPM_P1;HPM_P2
2021/06/10 00:00:51;;;;;;;10.97;3.90;;;;;;;19.70;61.45;99310.16;3427530;28;20109;-74
2021/06/10 00:02:32;;;;;;;5.63;3.55;;;;;;;19.69;61.68;99314.72;3427521;28;20038;-71
2021/06/10 00:04:13;;;;;;;4.72;3.22;;;;;;;19.67;61.68;99313.38;3427077;28;20587;-73
2021/06/10 00:05:54;;;;;;;5.95;3.83;;;;;;;19.66;61.49;99306.31;3427573;28;20551;-73
2021/06/10 00:07:35;;;;;;;9.32;4.03;;;;;;;19.63;61.81;99304.94;3426895;28;20046;-73
2021/06/10 00:09:15;;;;;;;7.43;4.30;;;;;;;19.61;61.85;99307.91;3427047;28;20051;-73
2021/06/10 00:10:57;;;;;;;6.32;4.15;;;;;;;19.61;61.69;99307.91;3413154;29;20089;-75
2021/06/10 00:12:38;;;;;;;9.38;3.53;;;;;;;19.65;62.42;99304.69;3424716;28;20058;-72
2021/06/10 00:14:19;;;;;;;7.15;3.72;;;;;;;19.69;61.96;99303.09;3427549;28;20055;-73
2021/06/10 00:16:00;;;;;;;7.60;4.18;;;;;;;19.70;61.69;99304.75;3429230;28;20051;-73
2021/06/10 00:17:40;;;;;;;6.83;3.77;;;;;;;19.72;61.65;99313.38;3415901;29;20039;-73
2021/06/10 00:19:21;;;;;;;12.57;4.03;;;;;;;19.71;61.65;99311.78;3426829;28;20505;-74
2021/06/10 00:21:02;;;;;;;6.73;4.07;;;;;;;19.68;61.56;99309.59;3430021;28;20049;-73
2021/06/10 00:22:43;;;;;;;6.97;3.85;;;;;;;19.65;61.17;99308.22;3430068;28;20066;-72
2021/06/10 00:24:24;;;;;;;7.30;3.60;;;;;;;19.63;61.12;99304.94;3429290;28;20134;-74
2021/06/10 00:26:04;;;;;;;7.72;4.70;;;;;;;19.61;61.20;99305.19;3429919;28;20045;-73
2021/06/10 00:27:45;;;;;;;5.72;4.20;;;;;;;19.60;61.03;99308.19;3429706;28;20535;-73
2021/06/10 00:29:26;;;;;;;7.57;3.67;;;;;;;19.59;61.77;99304.69;3415584;29;20525;-74
2021/06/10 00:31:07;;;;;;;4.10;3.60;;;;;;;19.59;61.77;99307.38;3415528;29;20517;-72
2021/06/10 00:32:50;;;;;;;10.90;4.13;;;;;;;19.58;61.58;99319.25;3427021;28;20035;-74
2021/06/10 00:34:30;;;;;;;6.80;3.80;;;;;;;19.57;61.71;99306.81;3429051;28;20521;-74
2021/06/10 00:36:11;;;;;;;7.67;4.83;;;;;;;19.54;61.31;99301.09;3429503;28;20034;-74
2021/06/10 00:37:57;;;;;;;6.25;4.47;;;;;;;19.55;61.28;99310.88;3429644;28;20047;-74
2021/06/10 00:39:38;;;;;;;9.60;5.70;;;;;;;19.52;61.76;99308.69;3429217;28;20105;-74
2021/06/10 00:41:19;;;;;;;9.88;5.00;;;;;;;19.51;61.15;99310.56;3429666;28;20129;-75
2021/06/10 00:43:00;;;;;;;6.83;4.83;;;;;;;19.49;61.25;99310.03;3429629;28;20038;-74
2021/06/10 00:44:41;;;;;;;11.55;5.15;;;;;;;19.46;61.15;99310.53;3414776;29;20303;-74
2021/06/10 00:46:22;;;;;;;8.53;5.73;;;;;;;19.42;61.10;99304.03;3426906;28;20421;-74
2021/06/10 00:48:03;;;;;;;6.60;5.50;;;;;;;19.43;61.18;99304.84;3429957;28;20047;-75
2021/06/10 00:49:44;;;;;;;8.20;5.70;;;;;;;19.42;61.52;99306.75;3429807;28;20047;-74
2021/06/10 00:51:24;;;;;;;7.68;5.22;;;;;;;19.45;61.68;99308.91;3429807;28;20170;-75
2021/06/10 00:53:06;;;;;;;8.38;5.60;;;;;;;19.46;61.54;99307.81;3429800;28;20058;-73
2021/06/10 00:54:47;;;;;;;7.85;5.28;;;;;;;19.46;61.84;99301.63;3429128;28;20518;-73
2021/06/10 00:56:27;;;;;;;5.95;5.35;;;;;;;19.44;61.60;99298.34;3429480;28;20046;-73
2021/06/10 00:58:08;;;;;;;7.65;5.55;;;;;;;19.45;61.46;99302.69;3429586;28;20046;-73
2021/06/10 00:59:49;;;;;;;11.73;4.60;;;;;;;19.45;61.31;99303.50;3429539;28;20074;-72
2021/06/10 01:01:30;;;;;;;9.95;4.85;;;;;;;19.42;61.57;99298.63;3429591;28;20134;-75
2021/06/10 01:03:11;;;;;;;7.83;5.43;;;;;;;19.45;61.51;99302.69;3429502;28;20043;-74
2021/06/10 01:04:52;;;;;;;5.87;4.77;;;;;;;19.45;61.49;99305.41;3428930;28;20414;-74
2021/06/10 01:06:51;;;;;;;7.20;4.88;;;;;;;19.47;61.55;99301.38;3429576;28;20034;-75
2021/06/10 01:09:07;;;;;;;8.75;5.10;;;;;;;19.45;61.67;99295.41;3429345;28;20070;-74
2021/06/10 01:11:02;;;;;;;6.00;4.45;;;;;;;19.48;61.22;99297.56;3425118;28;20510;-74
2021/06/10 01:12:46;;;;;;;4.72;4.00;;;;;;;19.44;61.27;99291.09;3415050;29;20051;-73
2021/06/10 01:14:36;;;;;;;4.65;3.42;;;;;;;19.42;61.32;99295.94;3426177;28;20130;-74
2021/06/10 01:16:20;;;;;;;6.75;3.90;;;;;;;19.40;61.17;99300.78;3415245;29;20076;-74
2021/06/10 01:18:01;;;;;;;5.90;4.38;;;;;;;19.38;61.33;99292.13;3412690;29;20449;-73
2021/06/10 01:19:42;;;;;;;5.43;3.80;;;;;;;19.36;61.20;99297.78;3412477;29;20052;-74
2021/06/10 01:21:23;;;;;;;5.13;3.80;;;;;;;19.33;61.22;99292.88;3426381;28;20042;-74
2021/06/10 01:23:12;;;;;;;4.90;3.92;;;;;;;19.34;61.66;99299.13;3429074;28;20133;-74
2021/06/10 01:25:07;;;;;;;5.63;3.70;;;;;;;19.34;61.31;99291.03;3414514;29;20040;-75
2021/06/10 01:27:12;;;;;;;7.97;3.67;;;;;;;19.34;61.57;99294.53;3427470;28;20041;-74
2021/06/10 01:28:53;;;;;;;4.60;3.53;;;;;;;19.30;61.41;99289.91;3428954;28;20077;-74
2021/06/10 01:30:36;;;;;;;5.22;3.97;;;;;;;19.30;61.30;99292.63;3415181;29;20051;-74
2021/06/10 01:32:18;;;;;;;7.82;4.00;;;;;;;19.29;61.36;99293.69;3426850;28;20054;-73
2021/06/10 01:34:02;;;;;;;6.67;3.50;;;;;;;19.28;61.51;99289.34;3428596;28;20039;-74
2021/06/10 01:35:47;;;;;;;5.70;3.60;;;;;;;19.27;61.68;99285.84;3414834;29;20039;-73
2021/06/10 01:37:28;;;;;;;5.65;3.63;;;;;;;19.29;61.73;99277.50;3414465;29;20054;-74
2021/06/10 01:39:11;;;;;;;5.63;3.80;;;;;;;19.26;61.92;99278.00;3412412;29;20043;-72
2021/06/10 01:40:52;;;;;;;6.97;3.92;;;;;;;19.26;61.46;99278.00;3412293;29;20303;-71
2021/06/10 01:42:37;;;;;;;6.30;3.47;;;;;;;19.33;61.77;99289.38;3412239;29;20081;-72
2021/06/10 01:44:18;;;;;;;5.50;3.55;;;;;;;19.32;61.57;99285.06;3426212;28;20501;-72
2021/06/10 01:45:59;;;;;;;5.28;3.88;;;;;;;19.34;61.72;99288.31;3414389;28;20067;-72
2021/06/10 01:47:42;;;;;;;5.17;3.70;;;;;;;19.33;61.54;99289.38;3412164;29;20565;-72
2021/06/10 01:49:22;;;;;;;3.95;3.15;;;;;;;19.31;61.39;99291.53;3426245;28;20133;-72
2021/06/10 01:51:04;;;;;;;5.93;3.90;;;;;;;19.30;61.24;99287.22;3414870;29;20471;-73
2021/06/10 01:52:46;;;;;;;4.25;3.22;;;;;;;19.28;61.09;99292.88;3411982;29;20043;-72
2021/06/10 01:54:27;;;;;;;4.20;3.10;;;;;;;19.27;61.12;99285.84;3425575;28;20104;-72
2021/06/10 01:56:08;;;;;;;4.83;3.50;;;;;;;19.31;61.25;99286.13;3414761;29;20086;-73
2021/06/10 01:57:49;;;;;;;7.17;4.60;;;;;;;19.32;61.37;99291.28;3412040;29;20094;-74
2021/06/10 01:59:31;;;;;;;6.53;2.97;;;;;;;19.30;61.47;99289.91;3414844;29;20075;-72
2021/06/10 02:01:15;;;;;;;4.00;3.60;;;;;;;19.28;61.36;99289.34;3414379;29;20043;-72
2021/06/10 02:02:56;;;;;;;5.32;2.85;;;;;;;19.29;61.30;99289.09;3412057;29;20509;-71
2021/06/10 02:04:41;;;;;;;12.50;3.60;;;;;;;19.28;61.21;99292.06;3412048;29;20050;-72
2021/06/10 02:06:23;;;;;;;7.05;3.20;;;;;;;19.27;61.10;99290.44;3412382;29;20438;-74
2021/06/10 02:08:07;;;;;;;9.68;3.28;;;;;;;19.26;61.10;99283.38;3426155;28;20093;-73
2021/06/10 02:09:48;;;;;;;4.95;3.45;;;;;;;19.22;61.05;99282.31;3414244;29;20126;-72
2021/06/10 02:11:29;;;;;;;4.57;3.57;;;;;;;19.23;61.20;99281.22;3411567;29;20043;-75
2021/06/10 02:13:10;;;;;;;5.05;4.05;;;;;;;19.22;61.18;99295.81;3411799;29;20680;-74
2021/06/10 02:14:51;;;;;;;6.53;3.73;;;;;;;19.22;60.94;99285.00;3411341;29;20046;-76
2021/06/10 02:16:33;;;;;;;3.23;2.80;;;;;;;19.23;61.06;99286.63;3426002;28;20046;-73
2021/06/10 02:18:14;;;;;;;4.95;2.60;;;;;;;19.25;61.75;99285.28;3414427;29;20533;-73
2021/06/10 02:19:55;;;;;;;3.57;3.13;;;;;;;19.33;61.10;99287.50;3414088;29;20102;-74
2021/06/10 02:21:36;;;;;;;3.10;2.80;;;;;;;19.32;61.26;99285.88;3425777;28;20042;-74
2021/06/10 02:23:17;;;;;;;6.10;3.47;;;;;;;19.29;61.08;99286.41;3414048;29;20534;-73
2021/06/10 02:24:58;;;;;;;5.38;3.53;;;;;;;19.27;60.89;99279.63;3425425;28;20309;-75
2021/06/10 02:26:39;;;;;;;4.07;3.13;;;;;;;19.26;60.97;99281.53;3414717;29;20548;-73
2021/06/10 02:28:20;;;;;;;5.43;3.28;;;;;;;19.26;61.11;99292.34;3426372;28;20043;-75
2021/06/10 02:30:02;;;;;;;3.17;2.63;;;;;;;19.26;61.06;99294.19;3429038;28;20053;-74
2021/06/10 02:31:43;;;;;;;6.75;3.28;;;;;;;19.24;61.09;99296.38;3429278;28;20414;-74
2021/06/10 02:33:24;;;;;;;5.05;3.25;;;;;;;19.23;60.60;99294.72;3428046;28;20046;-73
2021/06/10 02:35:07;;;;;;;4.75;3.13;;;;;;;19.20;60.50;99298.75;3400611;29;20054;-73
2021/06/10 02:36:48;;;;;;;4.10;3.50;;;;;;;19.18;60.66;99296.34;3423972;28;20445;-74
2021/06/10 02:38:30;;;;;;;4.07;2.87;;;;;;;19.17;60.97;99296.59;3413906;28;20134;-74
2021/06/10 02:40:18;;;;;;;7.43;3.05;;;;;;;19.13;60.51;99290.09;3425185;28;20294;-75
2021/06/10 02:42:00;;;;;;;4.25;2.97;;;;;;;19.15;60.85;99294.16;3428122;28;20066;-74
2021/06/10 02:43:43;;;;;;;11.20;4.15;;;;;;;19.13;61.30;99285.50;3400760;29;20044;-74
2021/06/10 02:45:23;;;;;;;3.58;2.90;;;;;;;19.16;61.12;99294.97;3408543;29;20070;-74
2021/06/10 02:47:05;;;;;;;4.17;3.23;;;;;;;19.17;61.12;99294.69;3411546;29;20434;-72
2021/06/10 02:48:48;;;;;;;4.18;3.50;;;;;;;19.16;61.14;99289.56;3411406;29;20050;-72
2021/06/10 02:50:30;;;;;;;4.15;2.97;;;;;;;19.17;61.03;99281.19;3425150;28;20049;-71
2021/06/10 02:52:13;;;;;;;5.57;3.53;;;;;;;19.19;61.43;99291.75;3428193;28;20074;-73
2021/06/10 02:53:54;;;;;;;3.78;3.30;;;;;;;19.22;61.28;99285.00;3428220;28;20047;-74
2021/06/10 02:55:36;;;;;;;4.65;3.17;;;;;;;19.22;60.64;99282.31;3428047;28;20046;-72
2021/06/10 02:57:20;;;;;;;3.67;3.33;;;;;;;19.21;61.01;99275.28;3428193;28;20133;-72
2021/06/10 02:59:01;;;;;;;5.50;3.08;;;;;;;19.21;60.49;99283.41;3427068;28;20529;-75
2021/06/10 03:00:44;;;;;;;3.05;2.67;;;;;;;19.19;60.44;99275.53;3427555;28;20051;-73
2021/06/10 03:02:25;;;;;;;4.55;3.42;;;;;;;19.18;60.83;99277.44;3413914;29;20097;-73
2021/06/10 03:04:08;;;;;;;6.65;3.38;;;;;;;19.20;60.64;99273.63;3425317;28;20501;-73
2021/06/10 03:05:49;;;;;;;7.97;3.88;;;;;;;19.17;60.85;99281.19;3413499;29;20087;-74
2021/06/10 03:07:30;;;;;;;4.22;3.00;;;;;;;19.16;60.54;99273.38;3411157;29;20081;-72
2021/06/10 03:09:15;;;;;;;6.03;3.57;;;;;;;19.16;60.48;99273.38;3413894;29;20042;-74
2021/06/10 03:11:01;;;;;;;4.18;3.40;;;;;;;19.12;60.54;99273.06;3425645;28;20050;-72
2021/06/10 03:12:42;;;;;;;4.53;3.55;;;;;;;19.06;60.41;99274.09;3413874;29;20118;-73
2021/06/10 03:14:23;;;;;;;4.93;3.37;;;;;;;19.08;60.41;99274.66;3425353;28;20085;-74
2021/06/10 03:16:04;;;;;;;5.25;3.60;;;;;;;19.07;60.65;99274.91;3414049;29;20046;-74
2021/06/10 03:17:45;;;;;;;6.68;3.60;;;;;;;19.08;60.51;99281.97;3411152;29;20082;-73
2021/06/10 03:19:26;;;;;;;8.07;4.20;;;;;;;19.07;60.80;99280.31;3398190;29;20055;-74
2021/06/10 03:21:07;;;;;;;6.27;3.53;;;;;;;19.05;60.51;99286.00;3428037;28;20145;-73
2021/06/10 03:22:48;;;;;;;3.33;3.03;;;;;;;19.02;60.24;99280.28;3431976;28;20042;-73
2021/06/10 03:24:29;;;;;;;4.70;3.60;;;;;;;19.02;60.65;99272.19;3416100;29;20039;-72
2021/06/10 03:26:09;;;;;;;5.17;3.77;;;;;;;19.02;60.65;99281.09;3411012;29;20126;-72
2021/06/10 03:27:50;;;;;;;6.15;3.45;;;;;;;19.01;60.48;99282.19;3424608;28;20348;-73
2021/06/10 03:29:31;;;;;;;7.28;4.10;;;;;;;19.05;60.64;99283.28;3427774;28;20331;-74
2021/06/10 03:31:12;;;;;;;6.70;3.50;;;;;;;19.04;60.61;99280.84;3427865;28;20054;-72
2021/06/10 03:32:53;;;;;;;8.48;3.05;;;;;;;19.02;60.71;99282.97;3413544;29;20051;-73
2021/06/10 03:34:34;;;;;;;3.72;3.28;;;;;;;19.03;60.50;99282.72;3410555;29;20031;-73
2021/06/10 03:36:15;;;;;;;5.10;3.22;;;;;;;19.00;60.59;99275.16;3411055;29;20641;-75
2021/06/10 03:37:55;;;;;;;5.40;2.87;;;;;;;19.02;60.80;99277.56;3424874;28;20931;-72
2021/06/10 03:39:37;;;;;;;5.38;4.30;;;;;;;19.02;60.82;99283.78;3413345;29;20353;-72
2021/06/10 03:41:19;;;;;;;5.50;4.40;;;;;;;19.02;60.54;99274.88;3413488;29;20478;-72
2021/06/10 03:43:00;;;;;;;7.35;4.93;;;;;;;19.03;60.42;99288.13;3413214;29;20207;-71
2021/06/10 03:44:41;;;;;;;7.43;3.13;;;;;;;19.09;61.66;99287.09;3410336;29;20106;-74
2021/06/10 03:46:22;;;;;;;3.58;3.10;;;;;;;19.24;62.14;99286.38;3410875;29;20102;-70
2021/06/10 03:48:03;;;;;;;13.40;2.92;;;;;;;19.38;62.34;99275.91;3397207;29;20623;-72
2021/06/10 03:49:44;;;;;;;8.50;3.40;;;;;;;19.53;62.18;99284.09;3411046;28;20055;-70
2021/06/10 03:51:25;;;;;;;5.63;3.00;;;;;;;19.68;62.08;99285.28;3416412;29;20036;-72
2021/06/10 03:53:06;;;;;;;8.27;3.70;;;;;;;19.78;62.42;99288.81;3417094;29;20529;-69
2021/06/10 03:54:47;;;;;;;7.38;4.03;;;;;;;19.88;62.60;99288.06;3422368;28;20412;-71
2021/06/10 03:56:28;;;;;;;4.75;3.38;;;;;;;19.94;62.71;99278.88;3430322;28;20046;-71
2021/06/10 03:58:08;;;;;;;5.78;3.03;;;;;;;20.03;62.17;99281.84;3430528;28;20054;-71
2021/06/10 03:59:50;;;;;;;9.30;4.53;;;;;;;20.07;62.00;99272.13;3430325;28;20051;-71
2021/06/10 04:01:31;;;;;;;4.50;3.65;;;;;;;20.16;62.11;99289.47;3430248;28;20121;-71
2021/06/10 04:03:11;;;;;;;8.60;3.40;;;;;;;20.21;61.88;99288.66;3430299;28;20039;-71
2021/06/10 04:04:54;;;;;;;12.52;3.28;;;;;;;20.27;61.69;99293.00;3429367;28;20409;-71
2021/06/10 04:06:37;;;;;;;5.28;3.08;;;;;;;20.32;61.46;99305.75;3430286;28;20490;-71
2021/06/10 04:08:18;;;;;;;8.10;3.40;;;;;;;20.32;61.04;99301.16;3415769;29;20051;-69
2021/06/10 04:09:58;;;;;;;7.87;3.80;;;;;;;20.36;61.18;99294.09;3426703;28;20065;-72
2021/06/10 04:11:39;;;;;;;5.13;3.07;;;;;;;20.38;60.85;99297.34;3415698;29;20053;-72
2021/06/10 04:13:20;;;;;;;4.78;3.83;;;;;;;20.41;61.10;99304.13;3413365;29;20043;-71
2021/06/10 04:15:01;;;;;;;8.73;4.20;;;;;;;20.46;61.20;99310.34;3427642;28;20537;-74
2021/06/10 04:16:42;;;;;;;9.17;3.67;;;;;;;20.50;61.27;99302.53;3430081;28;20353;-74
2021/06/10 04:18:23;;;;;;;5.77;3.90;;;;;;;20.53;60.98;99301.16;3429959;28;20034;-72
2021/06/10 04:20:09;;;;;;;6.47;3.45;;;;;;;20.52;61.21;99300.34;3415728;29;20047;-71
2021/06/10 04:21:50;;;;;;;4.03;3.33;;;;;;;20.51;61.00;99309.56;3427598;28;20042;-74
2021/06/10 04:23:30;;;;;;;4.87;3.23;;;;;;;20.55;60.65;99304.44;3415674;28;20043;-71
2021/06/10 04:25:11;;;;;;;8.37;3.27;;;;;;;20.56;60.53;99306.06;3412630;29;20463;-70
2021/06/10 04:26:52;;;;;;;8.87;3.73;;;;;;;20.60;60.38;99299.03;3426570;28;20105;-72
2021/06/10 04:28:33;;;;;;;4.70;3.77;;;;;;;20.60;60.56;99297.16;3429837;28;20045;-71
2021/06/10 04:30:16;;;;;;;6.40;3.40;;;;;;;20.67;60.33;99311.22;3429561;28;20066;-74
2021/06/10 04:31:56;;;;;;;6.75;3.25;;;;;;;20.68;59.97;99303.91;3429494;28;20069;-73
2021/06/10 04:33:37;;;;;;;5.03;3.80;;;;;;;20.73;59.55;99300.38;3429989;28;20058;-70
2021/06/10 04:35:18;;;;;;;5.07;3.60;;;;;;;20.76;59.31;99308.78;3429581;28;20042;-73
2021/06/10 04:36:59;;;;;;;5.55;3.80;;;;;;;20.74;59.08;99308.25;3429736;28;20073;-73
2021/06/10 04:38:40;;;;;;;3.50;3.17;;;;;;;20.72;59.09;99299.56;3429884;28;20035;-74
2021/06/10 04:40:20;;;;;;;5.68;3.00;;;;;;;20.77;59.19;99309.59;3429386;28;20047;-72
2021/06/10 04:42:01;;;;;;;3.88;3.28;;;;;;;20.77;58.94;99304.19;3429961;28;20049;-72
2021/06/10 04:43:42;;;;;;;3.78;3.38;;;;;;;20.80;59.23;99307.16;3430101;28;20046;-72
2021/06/10 04:45:23;;;;;;;5.47;3.53;;;;;;;20.82;58.71;99307.69;3415154;29;20499;-69
2021/06/10 04:47:05;;;;;;;5.78;3.80;;;;;;;20.81;58.12;99310.69;3412738;29;20074;-73
2021/06/10 04:48:45;;;;;;;5.45;3.70;;;;;;;20.74;58.03;99304.72;3427178;28;20049;-71
2021/06/10 04:50:28;;;;;;;7.17;3.73;;;;;;;20.67;57.88;99305.78;3429786;28;20082;-73
2021/06/10 04:52:08;;;;;;;5.50;4.32;;;;;;;20.61;57.94;99316.91;3415614;29;20054;-70
2021/06/10 04:53:49;;;;;;;9.20;3.73;;;;;;;20.52;58.14;99313.88;3427200;28;20066;-70
2021/06/10 04:55:30;;;;;;;5.47;3.80;;;;;;;20.47;58.12;99314.72;3428855;28;20090;-69
2021/06/10 04:57:11;;;;;;;7.75;4.55;;;;;;;20.45;58.26;99316.06;3429624;28;20043;-70
2021/06/10 04:58:52;;;;;;;10.53;5.07;;;;;;;20.43;58.31;99318.22;3429599;28;20046;-69
2021/06/10 05:00:35;;;;;;;5.87;3.27;;;;;;;20.42;58.41;99311.16;3429840;28;20047;-69
2021/06/10 05:02:16;;;;;;;5.53;4.30;;;;;;;20.40;58.79;99314.16;3429784;28;20043;-70
2021/06/10 05:03:57;;;;;;;13.83;11.90;;;;;;;20.42;58.75;99306.56;3429805;28;20409;-70
2021/06/10 05:05:39;;;;;;;8.02;5.53;;;;;;;20.39;58.53;99311.69;3414701;29;20077;-69
2021/06/10 05:07:19;;;;;;;;;;;;;;;20.46;58.39;99304.13;3427716;28;20047;-69
2021/06/10 05:09:00;;;;;;;5.78;3.90;;;;;;;20.44;58.32;99311.69;3429869;28;19997;-70
2021/06/10 05:10:42;;;;;;;5.27;4.20;;;;;;;20.43;58.34;99308.19;3429656;28;20043;-69
2021/06/10 05:12:23;;;;;;;8.38;3.80;;;;;;;20.39;58.49;99312.50;3429700;28;20043;-70
2021/06/10 05:14:03;;;;;;;4.43;3.87;;;;;;;20.34;58.46;99307.09;3429764;28;20043;-71
2021/06/10 05:15:44;;;;;;;4.90;3.63;;;;;;;20.30;58.44;99314.13;3429338;28;20043;-69
2021/06/10 05:17:25;;;;;;;5.87;3.70;;;;;;;20.25;58.88;99316.81;3429460;28;20130;-70
2021/06/10 05:19:06;;;;;;;5.57;4.22;;;;;;;20.22;58.95;99320.06;3429259;28;20039;-70
2021/06/10 05:20:46;;;;;;;8.60;4.23;;;;;;;20.17;59.62;99315.44;3429249;28;20043;-69
2021/06/10 05:22:28;;;;;;;4.43;3.38;;;;;;;20.16;59.55;99308.44;3429618;28;20509;-68
2021/06/10 05:24:11;;;;;;;10.38;4.18;;;;;;;20.14;59.50;99310.56;3429630;28;20155;-67
2021/06/10 05:25:52;;;;;;;15.00;4.50;;;;;;;20.13;59.27;99314.34;3428843;28;20046;-69
2021/06/10 05:27:34;;;;;;;10.53;4.03;;;;;;;20.11;59.76;99311.13;3428912;28;20409;-68
2021/06/10 05:29:14;;;;;;;8.55;4.35;;;;;;;20.12;59.97;99314.63;3429298;28;20042;-69
2021/06/10 05:30:55;;;;;;;8.05;4.95;;;;;;;20.10;60.08;99324.91;3429210;28;20506;-69
2021/06/10 05:32:36;;;;;;;6.87;5.23;;;;;;;20.08;59.86;99318.94;3429359;28;20046;-69
2021/06/10 05:34:17;;;;;;;14.27;6.47;;;;;;;20.05;59.69;99321.09;3429151;28;20118;-71
2021/06/10 05:35:58;;;;;;;8.20;4.22;;;;;;;20.00;60.08;99321.06;3414646;29;20299;-70
2021/06/10 05:37:38;;;;;;;5.75;4.53;;;;;;;19.96;59.80;99320.00;3414266;29;20573;-71
2021/06/10 05:39:21;;;;;;;5.27;3.93;;;;;;;19.90;59.84;99318.31;3414662;29;20414;-71
2021/06/10 05:41:02;;;;;;;6.18;4.10;;;;;;;19.92;60.11;99326.19;3412350;29;20051;-70
2021/06/10 05:42:42;;;;;;;4.83;3.57;;;;;;;19.91;59.94;99327.28;3412342;29;20130;-71
2021/06/10 05:44:23;;;;;;;8.63;4.50;;;;;;;19.92;59.73;99324.28;3426055;28;20045;-70
2021/06/10 05:46:04;;;;;;;4.93;3.70;;;;;;;19.96;60.38;99330.00;3414665;29;20529;-71
2021/06/10 05:47:45;;;;;;;4.07;3.57;;;;;;;19.98;59.82;99331.38;3425615;28;20458;-69
2021/06/10 05:49:26;;;;;;;5.30;3.83;;;;;;;19.99;59.81;99327.56;3428975;28;20101;-70
2021/06/10 05:51:06;;;;;;;4.97;3.40;;;;;;;20.00;59.60;99337.31;3429087;28;20395;-71
2021/06/10 05:52:47;;;;;;;8.73;3.58;;;;;;;20.03;59.92;99333.25;3429103;28;20580;-70
2021/06/10 05:54:28;;;;;;;8.02;3.67;;;;;;;20.07;60.17;99330.84;3428501;28;20469;-71
2021/06/10 05:56:08;;;;;;;12.87;3.37;;;;;;;20.08;59.85;99329.75;3428971;28;20097;-71
2021/06/10 05:57:50;;;;;;;5.57;3.28;;;;;;;20.11;60.06;99337.34;3428973;28;20637;-71
2021/06/10 05:59:31;;;;;;;6.73;3.77;;;;;;;20.10;59.79;99331.13;3429020;28;20105;-70
2021/06/10 06:01:12;;;;;;;12.55;6.78;;;;;;;20.12;59.65;99333.56;3429143;28;20066;-69
2021/06/10 06:02:52;;;;;;;18.27;13.38;;;;;;;20.09;59.85;99326.78;3414267;29;20047;-71
2021/06/10 06:04:33;;;;;;;8.27;5.73;;;;;;;20.14;59.78;99331.41;3425491;28;20046;-70
2021/06/10 06:06:19;;;;;;;10.13;4.90;;;;;;;20.19;60.14;99326.81;3414214;29;20097;-70
2021/06/10 06:08:00;;;;;;;9.65;5.82;;;;;;;20.28;59.73;99332.53;3412470;28;20130;-70
2021/06/10 06:09:40;;;;;;;6.67;4.50;;;;;;;20.35;59.54;99333.09;3425832;28;20046;-71
2021/06/10 06:11:22;;;;;;;14.25;4.38;;;;;;;20.40;59.51;99335.81;3428735;28;20043;-70
2021/06/10 06:13:03;;;;;;;8.60;4.47;;;;;;;20.43;59.33;99343.38;3413874;28;20371;-71
2021/06/10 06:14:45;;;;;;;7.63;4.38;;;;;;;20.40;58.90;99343.91;3398025;29;20040;-70
2021/06/10 06:16:26;;;;;;;4.50;3.85;;;;;;;20.36;59.35;99339.31;3409180;29;20550;-70
2021/06/10 06:18:08;;;;;;;6.77;4.47;;;;;;;20.37;59.01;99349.88;3425771;28;20162;-71
2021/06/10 06:19:48;;;;;;;;;;;;;;;20.39;59.13;99353.09;3414414;29;20050;-70
2021/06/10 06:21:29;;;;;;;4.57;3.08;;;;;;;20.31;58.99;99345.50;3414010;29;19934;-72
2021/06/10 06:23:10;;;;;;;5.80;3.83;;;;;;;20.27;59.01;99345.25;3425688;28;20065;-70
2021/06/10 06:24:50;;;;;;;6.25;4.18;;;;;;;20.21;59.18;99348.19;3413646;29;20035;-70
2021/06/10 06:26:33;;;;;;;6.68;3.88;;;;;;;20.18;59.05;99348.72;3424720;28;20211;-71
2021/06/10 06:28:13;;;;;;;5.18;3.30;;;;;;;20.12;59.03;99349.81;3428544;28;20136;-71
2021/06/10 06:29:54;;;;;;;4.25;3.42;;;;;;;20.11;59.14;99348.16;3428300;28;20039;-71
2021/06/10 06:31:35;;;;;;;4.25;3.55;;;;;;;20.11;59.65;99353.56;3414077;29;20039;-71
2021/06/10 06:33:16;;;;;;;5.38;4.20;;;;;;;20.11;59.51;99349.00;3398221;29;20051;-71
2021/06/10 06:34:56;;;;;;;5.30;3.17;;;;;;;20.13;59.23;99356.84;3411249;29;20077;-71
2021/06/10 06:36:38;;;;;;;7.53;3.47;;;;;;;20.14;59.70;99350.34;3424566;28;20050;-70
2021/06/10 06:38:19;;;;;;;8.60;3.80;;;;;;;20.19;59.67;99359.31;3414860;28;20105;-70
2021/06/10 06:39:59;;;;;;;7.97;4.40;;;;;;;20.26;59.34;99350.91;3406153;29;20035;-70
2021/06/10 06:41:41;;;;;;;7.38;3.40;;;;;;;20.31;59.35;99356.34;3425646;28;20042;-70
2021/06/10 06:43:25;;;;;;;9.82;3.75;;;;;;;20.35;59.19;99354.75;3413898;29;20050;-70
2021/06/10 06:45:07;;;;;;;6.07;3.67;;;;;;;20.36;58.98;99360.97;3417271;28;20109;-72
2021/06/10 06:46:51;;;;;;;11.15;3.80;;;;;;;20.40;59.07;99356.66;3433935;28;20049;-71
2021/06/10 06:48:33;;;;;;;8.38;3.70;;;;;;;20.42;58.95;99360.72;3427948;28;20406;-70
2021/06/10 06:50:14;;;;;;;6.75;3.45;;;;;;;20.43;58.72;99367.75;3432695;28;20034;-70
2021/06/10 06:51:56;;;;;;;4.85;3.47;;;;;;;20.37;58.28;99366.13;3431557;28;20414;-77
2021/06/10 06:53:37;;;;;;;5.50;3.70;;;;;;;20.28;58.43;99359.59;3426792;28;20530;-72
2021/06/10 06:55:18;;;;;;;5.87;3.53;;;;;;;20.20;58.73;99370.94;3427799;28;20133;-75
2021/06/10 06:56:59;;;;;;;5.33;2.73;;;;;;;20.07;58.54;99364.13;3426611;28;20035;-73
2021/06/10 06:58:40;;;;;;;4.67;2.67;;;;;;;19.94;58.94;99364.63;3427851;28;20046;-74
2021/06/10 07:00:23;;;;;;;5.30;3.33;;;;;;;19.82;58.80;99367.53;3427582;28;20108;-75
2021/06/10 07:02:05;;;;;;;4.88;3.85;;;;;;;19.71;59.32;99373.97;3412815;29;20047;-75
2021/06/10 07:03:46;;;;;;;8.57;4.17;;;;;;;19.61;59.39;99380.91;3424744;28;20486;-76
2021/06/10 07:05:28;;;;;;;4.57;3.37;;;;;;;19.53;60.13;99388.69;3427090;28;20048;-75
2021/06/10 07:07:10;;;;;;;4.10;2.83;;;;;;;19.44;59.94;99399.19;3427027;28;20429;-73
2021/06/10 07:08:50;;;;;;;4.43;2.88;;;;;;;19.35;60.06;99398.84;3427369;28;20097;-74
2021/06/10 07:10:32;;;;;;;4.97;3.13;;;;;;;19.27;60.54;99396.63;3427613;28;20489;-73
2021/06/10 07:12:13;;;;;;;;;;;;;;;19.29;60.01;99409.91;3427319;28;20508;-75
2021/06/10 07:13:55;;;;;;;5.78;3.70;;;;;;;19.11;60.57;99414.63;3426876;28;19922;-73
2021/06/10 07:15:37;;;;;;;6.28;3.50;;;;;;;19.02;60.74;99408.03;3413301;28;20043;-74
2021/06/10 07:17:18;;;;;;;5.95;3.83;;;;;;;18.90;61.00;99410.91;3400136;29;20469;-75
2021/06/10 07:19:00;;;;;;;6.53;4.83;;;;;;;18.86;61.36;99406.28;3402258;29;20050;-74
2021/06/10 07:20:43;;;;;;;5.43;3.90;;;;;;;18.80;61.69;99408.13;3420827;28;20038;-73
2021/06/10 07:22:25;;;;;;;5.15;3.45;;;;;;;18.73;61.81;99397.50;3426876;28;20850;-74
2021/06/10 07:24:06;;;;;;;9.90;3.33;;;;;;;18.71;62.12;99405.00;3427362;28;20039;-76
2021/06/10 07:25:47;;;;;;;4.10;3.67;;;;;;;18.69;61.87;99409.88;3422284;28;20046;-72
2021/06/10 07:27:30;;;;;;;4.95;3.55;;;;;;;18.66;62.13;99407.66;3426899;28;20871;-75
2021/06/10 07:29:12;;;;;;;3.88;3.47;;;;;;;18.65;62.06;99408.75;3426810;28;20129;-75
2021/06/10 07:30:57;;;;;;;7.85;3.20;;;;;;;18.60;62.11;99400.59;3427465;28;20035;-74
2021/06/10 07:32:39;;;;;;;4.35;3.63;;;;;;;18.60;62.12;99400.59;3427492;28;20485;-73
2021/06/10 07:34:22;;;;;;;7.53;4.45;;;;;;;18.61;62.30;99406.81;3408633;28;20059;-76
2021/06/10 07:36:04;;;;;;;5.85;4.22;;;;;;;18.58;62.27;99410.81;3424937;28;21040;-75
2021/06/10 07:37:50;;;;;;;8.40;4.25;;;;;;;18.56;62.70;99407.59;3426711;28;20038;-76
2021/06/10 07:39:31;;;;;;;7.70;4.68;;;;;;;18.56;63.01;99415.69;3426474;28;20097;-75
2021/06/10 07:41:13;;;;;;;8.00;5.43;;;;;;;18.55;62.71;99415.94;3427747;28;20066;-76
2021/06/10 07:42:54;;;;;;;9.18;4.78;;;;;;;18.51;63.01;99424.53;3427683;28;20486;-77
2021/06/10 07:44:36;;;;;;;14.15;7.30;;;;;;;18.52;63.26;99430.75;3427136;28;20152;-76
2021/06/10 07:46:18;;;;;;;10.82;7.47;;;;;;;18.50;63.42;99424.78;3423478;28;20141;-76
2021/06/10 07:47:59;;;;;;;12.13;6.80;;;;;;;18.47;63.18;99428.81;3427522;28;20379;-76
2021/06/10 07:49:41;;;;;;;10.60;6.03;;;;;;;18.43;63.46;99416.06;3426995;28;20101;-75
2021/06/10 07:51:23;;;;;;;6.35;4.53;;;;;;;18.42;63.51;99420.66;3429178;28;20066;-79
2021/06/10 07:53:05;;;;;;;7.40;4.75;;;;;;;18.41;63.31;99431.72;3431874;28;20050;-75
2021/06/10 07:54:46;;;;;;;;;;;;;;;18.52;63.30;99428.03;3432238;28;20453;-75
2021/06/10 07:56:28;;;;;;;6.00;4.63;;;;;;;18.40;63.27;99422.78;3412805;28;19914;-74
2021/06/10 07:58:09;;;;;;;8.68;4.50;;;;;;;18.38;63.26;99419.53;3431533;28;20037;-73
2021/06/10 07:59:50;;;;;;;7.63;4.88;;;;;;;18.36;63.54;99418.16;3443395;28;20090;-75